sensor_id;sensor_type;location;lat;lon;timestamp;P1;durP1;ratioP1;P2;durP2;ratioP2
55260;SDS011;41123;51.416;6.758;2022-08-03T00:00:40;6.53;;;3.13;;
55260;SDS011;41123;51.416;6.758;2022-08-03T00:03:06;6.97;;;3.47;;
55260;SDS011;41123;51.416;6.758;2022-08-03T00:05:33;6.40;;;3.50;;
55260;SDS011;41123;51.416;6.758;2022-08-03T00:07:59;6.77;;;3.13;;
55260;SDS011;41123;51.416;6.758;2022-08-03T00:10:25;5.15;;;3.05;;
55260;SDS011;41123;51.416;6.758;2022-08-03T00:12:52;6.55;;;2.72;;
55260;SDS011;41123;51.416;6.758;2022-08-03T00:15:19;7.00;;;3.10;;
55260;SDS011;41123;51.416;6.758;2022-08-03T00:17:45;5.32;;;3.10;;
55260;SDS011;41123;51.416;6.758;2022-08-03T00:20:11;7.35;;;2.88;;
55260;SDS011;41123;51.416;6.758;2022-08-03T00:22:37;4.70;;;2.70;;
55260;SDS011;41123;51.416;6.758;2022-08-03T00:25:03;5.32;;;2.75;;
55260;SDS011;41123;51.416;6.758;2022-08-03T00:27:30;6.03;;;2.80;;
55260;SDS011;41123;51.416;6.758;2022-08-03T00:29:56;5.90;;;2.90;;
55260;SDS011;41123;51.416;6.758;2022-08-03T00:32:22;6.00;;;2.83;;
55260;SDS011;41123;51.416;6.758;2022-08-03T00:34:48;5.03;;;2.90;;
55260;SDS011;41123;51.416;6.758;2022-08-03T00:37:14;7.07;;;2.80;;
55260;SDS011;41123;51.416;6.758;2022-08-03T00:39:41;6.18;;;2.83;;
55260;SDS011;41123;51.416;6.758;2022-08-03T00:42:10;6.18;;;3.00;;
55260;SDS011;41123;51.416;6.758;2022-08-03T00:44:39;6.72;;;2.90;;
55260;SDS011;41123;51.416;6.758;2022-08-03T00:47:06;5.32;;;2.55;;
55260;SDS011;41123;51.416;6.758;2022-08-03T00:49:32;5.57;;;2.75;;
55260;SDS011;41123;51.416;6.758;2022-08-03T00:51:59;5.45;;;2.78;;
55260;SDS011;41123;51.416;6.758;2022-08-03T00:54:25;7.72;;;3.08;;
55260;SDS011;41123;51.416;6.758;2022-08-03T00:56:52;6.05;;;2.90;;
55260;SDS011;41123;51.416;6.758;2022-08-03T00:59:18;7.57;;;2.70;;
55260;SDS011;41123;51.416;6.758;2022-08-03T01:01:44;7.28;;;3.08;;
55260;SDS011;41123;51.416;6.758;2022-08-03T01:04:11;9.80;;;4.70;;
55260;SDS011;41123;51.416;6.758;2022-08-03T01:06:51;6.95;;;3.45;;
55260;SDS011;41123;51.416;6.758;2022-08-03T01:11:48;9.32;;;3.90;;
55260;SDS011;41123;51.416;6.758;2022-08-03T01:14:59;9.90;;;4.25;;
55260;SDS011;41123;51.416;6.758;2022-08-03T01:20:01;11.75;;;5.40;;
55260;SDS011;41123;51.416;6.758;2022-08-03T01:22:39;13.05;;;5.72;;
55260;SDS011;41123;51.416;6.758;2022-08-03T01:30:39;10.55;;;4.95;;
55260;SDS011;41123;51.416;6.758;2022-08-03T01:35:52;8.70;;;4.60;;
55260;SDS011;41123;51.416;6.758;2022-08-03T01:38:31;11.27;;;4.95;;
55260;SDS011;41123;51.416;6.758;2022-08-03T01:41:00;14.68;;;7.05;;
55260;SDS011;41123;51.416;6.758;2022-08-03T01:43:28;11.77;;;5.70;;
55260;SDS011;41123;51.416;6.758;2022-08-03T01:45:56;11.00;;;6.03;;
55260;SDS011;41123;51.416;6.758;2022-08-03T01:48:22;10.25;;;4.93;;
55260;SDS011;41123;51.416;6.758;2022-08-03T01:50:49;12.93;;;6.82;;
55260;SDS011;41123;51.416;6.758;2022-08-03T01:53:16;10.40;;;5.57;;
55260;SDS011;41123;51.416;6.758;2022-08-03T01:55:45;9.50;;;5.30;;
55260;SDS011;41123;51.416;6.758;2022-08-03T01:58:12;12.02;;;6.32;;
55260;SDS011;41123;51.416;6.758;2022-08-03T02:00:41;11.82;;;5.63;;
55260;SDS011;41123;51.416;6.758;2022-08-03T02:03:07;9.83;;;5.07;;
55260;SDS011;41123;51.416;6.758;2022-08-03T02:05:34;9.50;;;5.50;;
55260;SDS011;41123;51.416;6.758;2022-08-03T02:08:01;8.60;;;4.93;;
55260;SDS011;41123;51.416;6.758;2022-08-03T02:10:28;9.48;;;4.97;;
55260;SDS011;41123;51.416;6.758;2022-08-03T02:12:56;10.23;;;4.43;;
55260;SDS011;41123;51.416;6.758;2022-08-03T02:15:23;9.05;;;4.38;;
55260;SDS011;41123;51.416;6.758;2022-08-03T02:17:50;9.45;;;4.00;;
55260;SDS011;41123;51.416;6.758;2022-08-03T02:20:16;8.40;;;4.10;;
55260;SDS011;41123;51.416;6.758;2022-08-03T02:22:46;7.70;;;3.33;;
55260;SDS011;41123;51.416;6.758;2022-08-03T02:25:13;7.82;;;3.28;;
55260;SDS011;41123;51.416;6.758;2022-08-03T02:27:45;5.70;;;3.10;;
55260;SDS011;41123;51.416;6.758;2022-08-03T02:30:12;5.18;;;2.90;;
55260;SDS011;41123;51.416;6.758;2022-08-03T02:32:39;6.13;;;3.50;;
55260;SDS011;41123;51.416;6.758;2022-08-03T02:35:10;7.07;;;3.20;;
55260;SDS011;41123;51.416;6.758;2022-08-03T02:37:41;7.35;;;3.15;;
55260;SDS011;41123;51.416;6.758;2022-08-03T02:40:08;4.97;;;2.88;;
55260;SDS011;41123;51.416;6.758;2022-08-03T02:42:35;6.85;;;3.17;;
55260;SDS011;41123;51.416;6.758;2022-08-03T02:45:04;6.85;;;3.00;;
55260;SDS011;41123;51.416;6.758;2022-08-03T02:47:31;5.97;;;3.15;;
55260;SDS011;41123;51.416;6.758;2022-08-03T02:50:00;6.38;;;2.78;;
55260;SDS011;41123;51.416;6.758;2022-08-03T02:52:27;6.93;;;3.10;;
55260;SDS011;41123;51.416;6.758;2022-08-03T02:54:58;7.93;;;3.15;;
55260;SDS011;41123;51.416;6.758;2022-08-03T02:57:25;5.50;;;3.20;;
55260;SDS011;41123;51.416;6.758;2022-08-03T02:59:52;5.78;;;3.05;;
55260;SDS011;41123;51.416;6.758;2022-08-03T03:02:20;6.65;;;3.00;;
55260;SDS011;41123;51.416;6.758;2022-08-03T03:04:47;7.20;;;3.00;;
55260;SDS011;41123;51.416;6.758;2022-08-03T03:07:14;6.72;;;3.20;;
55260;SDS011;41123;51.416;6.758;2022-08-03T03:09:42;7.40;;;3.40;;
55260;SDS011;41123;51.416;6.758;2022-08-03T03:12:08;7.18;;;3.42;;
55260;SDS011;41123;51.416;6.758;2022-08-03T03:14:35;6.45;;;3.85;;
55260;SDS011;41123;51.416;6.758;2022-08-03T03:17:02;6.78;;;3.40;;
55260;SDS011;41123;51.416;6.758;2022-08-03T03:19:29;7.07;;;3.47;;
55260;SDS011;41123;51.416;6.758;2022-08-03T03:21:55;7.25;;;3.30;;
55260;SDS011;41123;51.416;6.758;2022-08-03T03:24:23;8.40;;;3.35;;
55260;SDS011;41123;51.416;6.758;2022-08-03T03:26:49;6.30;;;3.30;;
55260;SDS011;41123;51.416;6.758;2022-08-03T03:29:16;5.43;;;3.55;;
55260;SDS011;41123;51.416;6.758;2022-08-03T03:31:42;6.45;;;3.50;;
55260;SDS011;41123;51.416;6.758;2022-08-03T03:34:08;8.35;;;4.00;;
55260;SDS011;41123;51.416;6.758;2022-08-03T03:36:35;7.85;;;3.63;;
55260;SDS011;41123;51.416;6.758;2022-08-03T03:39:01;8.75;;;3.92;;
55260;SDS011;41123;51.416;6.758;2022-08-03T03:41:27;6.17;;;3.53;;
55260;SDS011;41123;51.416;6.758;2022-08-03T03:43:53;8.25;;;4.07;;
55260;SDS011;41123;51.416;6.758;2022-08-03T03:46:20;9.48;;;3.58;;
55260;SDS011;41123;51.416;6.758;2022-08-03T03:48:46;7.65;;;3.55;;
55260;SDS011;41123;51.416;6.758;2022-08-03T03:51:13;9.20;;;3.70;;
55260;SDS011;41123;51.416;6.758;2022-08-03T03:53:40;6.38;;;3.63;;
55260;SDS011;41123;51.416;6.758;2022-08-03T03:56:18;7.07;;;3.53;;
55260;SDS011;41123;51.416;6.758;2022-08-03T03:58:44;5.90;;;3.55;;
55260;SDS011;41123;51.416;6.758;2022-08-03T04:01:11;10.10;;;3.72;;
55260;SDS011;41123;51.416;6.758;2022-08-03T04:03:37;7.30;;;3.60;;
55260;SDS011;41123;51.416;6.758;2022-08-03T04:06:03;7.40;;;3.67;;
55260;SDS011;41123;51.416;6.758;2022-08-03T04:08:48;9.90;;;4.22;;
55260;SDS011;41123;51.416;6.758;2022-08-03T04:11:35;7.13;;;4.00;;
55260;SDS011;41123;51.416;6.758;2022-08-03T04:16:30;9.03;;;4.47;;
55260;SDS011;41123;51.416;6.758;2022-08-03T04:19:04;11.38;;;4.18;;
55260;SDS011;41123;51.416;6.758;2022-08-03T04:21:32;9.52;;;4.30;;
55260;SDS011;41123;51.416;6.758;2022-08-03T04:24:03;7.78;;;3.92;;
55260;SDS011;41123;51.416;6.758;2022-08-03T04:26:32;9.73;;;4.00;;
55260;SDS011;41123;51.416;6.758;2022-08-03T04:29:00;10.60;;;4.07;;
55260;SDS011;41123;51.416;6.758;2022-08-03T04:31:27;9.40;;;4.20;;
55260;SDS011;41123;51.416;6.758;2022-08-03T04:33:54;9.98;;;4.40;;
55260;SDS011;41123;51.416;6.758;2022-08-03T04:36:24;9.20;;;4.20;;
55260;SDS011;41123;51.416;6.758;2022-08-03T04:38:57;7.78;;;4.15;;
55260;SDS011;41123;51.416;6.758;2022-08-03T04:41:25;11.23;;;4.47;;
55260;SDS011;41123;51.416;6.758;2022-08-03T04:43:56;9.30;;;4.65;;
55260;SDS011;41123;51.416;6.758;2022-08-03T04:46:25;8.87;;;4.57;;
55260;SDS011;41123;51.416;6.758;2022-08-03T04:48:51;10.23;;;4.50;;
55260;SDS011;41123;51.416;6.758;2022-08-03T04:51:18;8.13;;;4.57;;
55260;SDS011;41123;51.416;6.758;2022-08-03T04:53:44;8.82;;;4.20;;
55260;SDS011;41123;51.416;6.758;2022-08-03T04:56:10;8.10;;;4.18;;
55260;SDS011;41123;51.416;6.758;2022-08-03T04:58:37;9.35;;;4.20;;
55260;SDS011;41123;51.416;6.758;2022-08-03T05:01:03;9.55;;;4.63;;
55260;SDS011;41123;51.416;6.758;2022-08-03T05:03:30;7.03;;;4.30;;
55260;SDS011;41123;51.416;6.758;2022-08-03T05:05:56;7.45;;;4.10;;
55260;SDS011;41123;51.416;6.758;2022-08-03T05:08:22;8.75;;;4.35;;
55260;SDS011;41123;51.416;6.758;2022-08-03T05:10:48;9.82;;;5.00;;
55260;SDS011;41123;51.416;6.758;2022-08-03T05:13:15;9.70;;;4.15;;
55260;SDS011;41123;51.416;6.758;2022-08-03T05:15:41;8.77;;;4.30;;
55260;SDS011;41123;51.416;6.758;2022-08-03T05:18:07;8.48;;;3.97;;
55260;SDS011;41123;51.416;6.758;2022-08-03T05:20:33;9.43;;;4.50;;
55260;SDS011;41123;51.416;6.758;2022-08-03T05:22:59;9.38;;;4.40;;
55260;SDS011;41123;51.416;6.758;2022-08-03T05:25:28;10.40;;;4.60;;
55260;SDS011;41123;51.416;6.758;2022-08-03T05:27:54;10.07;;;4.60;;
55260;SDS011;41123;51.416;6.758;2022-08-03T05:30:20;10.23;;;4.90;;
55260;SDS011;41123;51.416;6.758;2022-08-03T05:32:47;8.07;;;4.57;;
55260;SDS011;41123;51.416;6.758;2022-08-03T05:35:13;11.25;;;5.15;;
55260;SDS011;41123;51.416;6.758;2022-08-03T05:37:39;8.60;;;5.03;;
55260;SDS011;41123;51.416;6.758;2022-08-03T05:40:05;8.35;;;4.60;;
55260;SDS011;41123;51.416;6.758;2022-08-03T05:42:31;8.73;;;4.57;;
55260;SDS011;41123;51.416;6.758;2022-08-03T05:44:58;10.25;;;5.07;;
55260;SDS011;41123;51.416;6.758;2022-08-03T05:47:24;11.13;;;5.03;;
55260;SDS011;41123;51.416;6.758;2022-08-03T05:49:50;9.95;;;5.35;;
55260;SDS011;41123;51.416;6.758;2022-08-03T05:52:16;8.13;;;5.10;;
55260;SDS011;41123;51.416;6.758;2022-08-03T05:54:42;11.77;;;4.77;;
55260;SDS011;41123;51.416;6.758;2022-08-03T05:57:09;12.87;;;4.93;;
55260;SDS011;41123;51.416;6.758;2022-08-03T05:59:36;10.67;;;4.83;;
55260;SDS011;41123;51.416;6.758;2022-08-03T06:02:03;9.97;;;4.80;;
55260;SDS011;41123;51.416;6.758;2022-08-03T06:04:29;9.75;;;5.43;;
55260;SDS011;41123;51.416;6.758;2022-08-03T06:06:55;10.00;;;4.93;;
55260;SDS011;41123;51.416;6.758;2022-08-03T06:09:22;12.30;;;5.47;;
55260;SDS011;41123;51.416;6.758;2022-08-03T06:11:48;13.38;;;5.78;;
55260;SDS011;41123;51.416;6.758;2022-08-03T06:14:14;13.95;;;4.93;;
55260;SDS011;41123;51.416;6.758;2022-08-03T06:16:40;11.13;;;5.22;;
55260;SDS011;41123;51.416;6.758;2022-08-03T06:19:06;10.55;;;5.30;;
55260;SDS011;41123;51.416;6.758;2022-08-03T06:21:32;9.52;;;4.85;;
55260;SDS011;41123;51.416;6.758;2022-08-03T06:23:59;11.32;;;6.10;;
55260;SDS011;41123;51.416;6.758;2022-08-03T06:26:25;8.60;;;4.93;;
55260;SDS011;41123;51.416;6.758;2022-08-03T06:28:52;11.50;;;5.00;;
55260;SDS011;41123;51.416;6.758;2022-08-03T06:31:19;10.38;;;5.22;;
55260;SDS011;41123;51.416;6.758;2022-08-03T06:33:45;11.75;;;5.90;;
55260;SDS011;41123;51.416;6.758;2022-08-03T06:36:11;10.88;;;5.03;;
55260;SDS011;41123;51.416;6.758;2022-08-03T06:38:37;9.80;;;4.72;;
55260;SDS011;41123;51.416;6.758;2022-08-03T06:41:04;11.25;;;4.25;;
55260;SDS011;41123;51.416;6.758;2022-08-03T06:43:30;9.85;;;4.75;;
55260;SDS011;41123;51.416;6.758;2022-08-03T06:45:59;9.10;;;5.15;;
55260;SDS011;41123;51.416;6.758;2022-08-03T06:48:26;11.23;;;5.07;;
55260;SDS011;41123;51.416;6.758;2022-08-03T06:50:52;9.77;;;4.75;;
55260;SDS011;41123;51.416;6.758;2022-08-03T06:53:18;12.05;;;6.47;;
55260;SDS011;41123;51.416;6.758;2022-08-03T06:55:44;15.40;;;6.20;;
55260;SDS011;41123;51.416;6.758;2022-08-03T06:58:10;9.65;;;4.50;;
55260;SDS011;41123;51.416;6.758;2022-08-03T07:00:36;15.50;;;6.93;;
55260;SDS011;41123;51.416;6.758;2022-08-03T07:03:03;13.25;;;6.18;;
55260;SDS011;41123;51.416;6.758;2022-08-03T07:05:29;15.57;;;7.57;;
55260;SDS011;41123;51.416;6.758;2022-08-03T07:07:57;14.40;;;6.03;;
55260;SDS011;41123;51.416;6.758;2022-08-03T07:10:26;10.93;;;4.38;;
55260;SDS011;41123;51.416;6.758;2022-08-03T07:12:52;8.13;;;4.07;;
55260;SDS011;41123;51.416;6.758;2022-08-03T07:15:18;13.10;;;4.55;;
55260;SDS011;41123;51.416;6.758;2022-08-03T07:17:45;14.27;;;4.72;;
55260;SDS011;41123;51.416;6.758;2022-08-03T07:20:11;9.38;;;4.03;;
55260;SDS011;41123;51.416;6.758;2022-08-03T07:22:39;13.38;;;4.40;;
55260;SDS011;41123;51.416;6.758;2022-08-03T07:25:05;10.18;;;4.35;;
55260;SDS011;41123;51.416;6.758;2022-08-03T07:27:32;11.67;;;4.27;;
55260;SDS011;41123;51.416;6.758;2022-08-03T07:29:58;12.83;;;3.97;;
55260;SDS011;41123;51.416;6.758;2022-08-03T07:32:24;14.07;;;4.47;;
55260;SDS011;41123;51.416;6.758;2022-08-03T07:34:51;12.32;;;5.32;;
55260;SDS011;41123;51.416;6.758;2022-08-03T07:37:17;7.97;;;3.63;;
55260;SDS011;41123;51.416;6.758;2022-08-03T07:39:43;12.00;;;4.13;;
55260;SDS011;41123;51.416;6.758;2022-08-03T07:42:09;10.00;;;3.30;;
55260;SDS011;41123;51.416;6.758;2022-08-03T07:44:35;9.63;;;3.53;;
55260;SDS011;41123;51.416;6.758;2022-08-03T07:47:03;8.57;;;3.60;;
55260;SDS011;41123;51.416;6.758;2022-08-03T07:49:30;9.13;;;3.53;;
55260;SDS011;41123;51.416;6.758;2022-08-03T07:51:56;10.50;;;3.35;;
55260;SDS011;41123;51.416;6.758;2022-08-03T07:54:40;10.95;;;4.22;;
55260;SDS011;41123;51.416;6.758;2022-08-03T07:57:07;13.75;;;4.25;;
55260;SDS011;41123;51.416;6.758;2022-08-03T07:59:33;12.68;;;4.80;;
55260;SDS011;41123;51.416;6.758;2022-08-03T08:01:59;15.13;;;4.22;;
55260;SDS011;41123;51.416;6.758;2022-08-03T08:04:25;12.70;;;4.13;;
55260;SDS011;41123;51.416;6.758;2022-08-03T08:06:52;13.15;;;4.20;;
55260;SDS011;41123;51.416;6.758;2022-08-03T08:09:18;10.55;;;3.83;;
55260;SDS011;41123;51.416;6.758;2022-08-03T08:11:44;12.40;;;3.47;;
55260;SDS011;41123;51.416;6.758;2022-08-03T08:14:10;11.07;;;4.37;;
55260;SDS011;41123;51.416;6.758;2022-08-03T08:16:36;12.97;;;3.90;;
55260;SDS011;41123;51.416;6.758;2022-08-03T08:19:03;12.30;;;3.67;;
55260;SDS011;41123;51.416;6.758;2022-08-03T08:21:29;15.63;;;4.32;;
55260;SDS011;41123;51.416;6.758;2022-08-03T08:23:56;12.30;;;4.10;;
55260;SDS011;41123;51.416;6.758;2022-08-03T08:26:22;11.40;;;3.70;;
55260;SDS011;41123;51.416;6.758;2022-08-03T08:28:48;9.82;;;3.35;;
55260;SDS011;41123;51.416;6.758;2022-08-03T08:31:14;10.23;;;3.50;;
55260;SDS011;41123;51.416;6.758;2022-08-03T08:33:41;12.57;;;3.60;;
55260;SDS011;41123;51.416;6.758;2022-08-03T08:36:07;9.40;;;3.42;;
55260;SDS011;41123;51.416;6.758;2022-08-03T08:38:33;12.38;;;3.42;;
55260;SDS011;41123;51.416;6.758;2022-08-03T08:40:59;11.47;;;3.90;;
55260;SDS011;41123;51.416;6.758;2022-08-03T08:43:26;9.80;;;3.30;;
55260;SDS011;41123;51.416;6.758;2022-08-03T08:45:53;13.27;;;2.90;;
55260;SDS011;41123;51.416;6.758;2022-08-03T08:48:20;8.68;;;2.97;;
55260;SDS011;41123;51.416;6.758;2022-08-03T08:50:48;10.35;;;3.33;;
55260;SDS011;41123;51.416;6.758;2022-08-03T08:53:17;7.65;;;2.75;;
55260;SDS011;41123;51.416;6.758;2022-08-03T08:55:45;9.32;;;3.03;;
55260;SDS011;41123;51.416;6.758;2022-08-03T08:58:11;10.07;;;3.33;;
55260;SDS011;41123;51.416;6.758;2022-08-03T09:00:43;10.85;;;3.08;;
55260;SDS011;41123;51.416;6.758;2022-08-03T09:03:10;7.95;;;2.80;;
55260;SDS011;41123;51.416;6.758;2022-08-03T09:05:41;8.82;;;2.28;;
55260;SDS011;41123;51.416;6.758;2022-08-03T09:08:07;7.35;;;2.50;;
55260;SDS011;41123;51.416;6.758;2022-08-03T09:10:34;7.50;;;2.63;;
55260;SDS011;41123;51.416;6.758;2022-08-03T09:13:00;8.88;;;2.67;;
55260;SDS011;41123;51.416;6.758;2022-08-03T09:15:27;9.90;;;2.65;;
55260;SDS011;41123;51.416;6.758;2022-08-03T09:18:01;9.73;;;2.57;;
55260;SDS011;41123;51.416;6.758;2022-08-03T09:20:28;7.32;;;2.80;;
55260;SDS011;41123;51.416;6.758;2022-08-03T09:25:28;9.25;;;2.70;;
55260;SDS011;41123;51.416;6.758;2022-08-03T09:27:55;10.82;;;2.70;;
55260;SDS011;41123;51.416;6.758;2022-08-03T09:30:28;7.95;;;2.20;;
55260;SDS011;41123;51.416;6.758;2022-08-03T09:33:02;8.60;;;2.40;;
55260;SDS011;41123;51.416;6.758;2022-08-03T09:35:29;10.40;;;2.35;;
55260;SDS011;41123;51.416;6.758;2022-08-03T09:38:11;7.60;;;2.50;;
55260;SDS011;41123;51.416;6.758;2022-08-03T09:40:38;10.43;;;2.50;;
55260;SDS011;41123;51.416;6.758;2022-08-03T09:43:05;8.77;;;2.88;;
55260;SDS011;41123;51.416;6.758;2022-08-03T09:45:35;9.93;;;2.70;;
55260;SDS011;41123;51.416;6.758;2022-08-03T09:50:46;13.23;;;3.53;;
55260;SDS011;41123;51.416;6.758;2022-08-03T09:53:13;7.25;;;2.58;;
55260;SDS011;41123;51.416;6.758;2022-08-03T09:55:49;7.97;;;2.92;;
55260;SDS011;41123;51.416;6.758;2022-08-03T09:58:15;5.00;;;1.70;;
55260;SDS011;41123;51.416;6.758;2022-08-03T10:03:20;7.13;;;2.13;;
55260;SDS011;41123;51.416;6.758;2022-08-03T10:05:46;5.40;;;1.90;;
55260;SDS011;41123;51.416;6.758;2022-08-03T10:08:13;3.92;;;1.70;;
55260;SDS011;41123;51.416;6.758;2022-08-03T10:10:43;6.43;;;1.83;;
55260;SDS011;41123;51.416;6.758;2022-08-03T10:13:13;5.15;;;1.63;;
55260;SDS011;41123;51.416;6.758;2022-08-03T10:15:39;5.88;;;2.00;;
55260;SDS011;41123;51.416;6.758;2022-08-03T10:18:06;4.18;;;1.48;;
55260;SDS011;41123;51.416;6.758;2022-08-03T10:20:48;4.53;;;1.55;;
55260;SDS011;41123;51.416;6.758;2022-08-03T10:23:16;10.75;;;4.05;;
55260;SDS011;41123;51.416;6.758;2022-08-03T10:25:46;12.60;;;4.95;;
55260;SDS011;41123;51.416;6.758;2022-08-03T10:28:13;10.75;;;3.72;;
55260;SDS011;41123;51.416;6.758;2022-08-03T10:30:40;4.80;;;1.40;;
55260;SDS011;41123;51.416;6.758;2022-08-03T10:33:14;6.47;;;1.70;;
55260;SDS011;41123;51.416;6.758;2022-08-03T10:35:42;3.70;;;1.23;;
55260;SDS011;41123;51.416;6.758;2022-08-03T10:38:11;2.50;;;1.23;;
55260;SDS011;41123;51.416;6.758;2022-08-03T10:40:37;6.80;;;1.20;;
55260;SDS011;41123;51.416;6.758;2022-08-03T10:43:26;6.00;;;1.33;;
55260;SDS011;41123;51.416;6.758;2022-08-03T10:45:51;5.90;;;1.40;;
55260;SDS011;41123;51.416;6.758;2022-08-03T10:48:17;3.65;;;1.42;;
55260;SDS011;41123;51.416;6.758;2022-08-03T10:50:44;7.10;;;1.70;;
55260;SDS011;41123;51.416;6.758;2022-08-03T10:53:11;4.78;;;1.20;;
55260;SDS011;41123;51.416;6.758;2022-08-03T10:55:38;5.07;;;1.50;;
55260;SDS011;41123;51.416;6.758;2022-08-03T10:58:45;4.50;;;1.10;;
55260;SDS011;41123;51.416;6.758;2022-08-03T11:01:10;4.85;;;1.50;;
55260;SDS011;41123;51.416;6.758;2022-08-03T11:06:22;3.97;;;1.50;;
55260;SDS011;41123;51.416;6.758;2022-08-03T11:08:49;4.47;;;1.52;;
55260;SDS011;41123;51.416;6.758;2022-08-03T11:13:58;5.57;;;1.63;;
55260;SDS011;41123;51.416;6.758;2022-08-03T11:16:25;5.88;;;1.65;;
55260;SDS011;41123;51.416;6.758;2022-08-03T11:18:56;3.53;;;1.27;;
55260;SDS011;41123;51.416;6.758;2022-08-03T11:21:51;5.95;;;1.60;;
55260;SDS011;41123;51.416;6.758;2022-08-03T11:24:41;5.47;;;1.25;;
55260;SDS011;41123;51.416;6.758;2022-08-03T11:35:20;3.70;;;1.20;;
55260;SDS011;41123;51.416;6.758;2022-08-03T11:43:01;3.85;;;1.30;;
55260;SDS011;41123;51.416;6.758;2022-08-03T11:45:28;7.35;;;1.48;;
55260;SDS011;41123;51.416;6.758;2022-08-03T11:47:55;4.45;;;1.02;;
55260;SDS011;41123;51.416;6.758;2022-08-03T11:50:23;6.93;;;1.40;;
55260;SDS011;41123;51.416;6.758;2022-08-03T11:52:49;5.20;;;1.23;;
55260;SDS011;41123;51.416;6.758;2022-08-03T11:55:16;4.25;;;1.60;;
55260;SDS011;41123;51.416;6.758;2022-08-03T11:57:44;3.90;;;1.30;;
55260;SDS011;41123;51.416;6.758;2022-08-03T12:00:18;3.92;;;1.20;;
55260;SDS011;41123;51.416;6.758;2022-08-03T12:02:55;3.83;;;1.20;;
55260;SDS011;41123;51.416;6.758;2022-08-03T12:05:31;6.25;;;1.23;;
55260;SDS011;41123;51.416;6.758;2022-08-03T12:07:57;7.18;;;1.30;;
55260;SDS011;41123;51.416;6.758;2022-08-03T12:10:24;3.15;;;1.30;;
55260;SDS011;41123;51.416;6.758;2022-08-03T12:12:54;4.55;;;1.40;;
55260;SDS011;41123;51.416;6.758;2022-08-03T12:15:30;3.25;;;1.25;;
55260;SDS011;41123;51.416;6.758;2022-08-03T12:18:01;8.48;;;1.27;;
55260;SDS011;41123;51.416;6.758;2022-08-03T12:20:28;4.93;;;1.20;;
55260;SDS011;41123;51.416;6.758;2022-08-03T12:23:00;4.78;;;1.10;;
55260;SDS011;41123;51.416;6.758;2022-08-03T12:25:27;5.05;;;1.30;;
55260;SDS011;41123;51.416;6.758;2022-08-03T12:27:53;6.72;;;1.30;;
55260;SDS011;41123;51.416;6.758;2022-08-03T12:30:30;10.60;;;1.60;;
55260;SDS011;41123;51.416;6.758;2022-08-03T12:32:56;4.50;;;1.30;;
55260;SDS011;41123;51.416;6.758;2022-08-03T12:35:23;6.67;;;1.33;;
55260;SDS011;41123;51.416;6.758;2022-08-03T12:37:50;3.85;;;1.13;;
55260;SDS011;41123;51.416;6.758;2022-08-03T12:40:23;4.45;;;1.30;;
55260;SDS011;41123;51.416;6.758;2022-08-03T12:42:50;3.97;;;1.27;;
55260;SDS011;41123;51.416;6.758;2022-08-03T12:45:26;4.88;;;1.38;;
55260;SDS011;41123;51.416;6.758;2022-08-03T12:47:56;5.53;;;1.30;;
55260;SDS011;41123;51.416;6.758;2022-08-03T12:50:27;5.32;;;1.27;;
55260;SDS011;41123;51.416;6.758;2022-08-03T12:52:54;2.63;;;1.30;;
55260;SDS011;41123;51.416;6.758;2022-08-03T12:55:21;6.35;;;1.23;;
55260;SDS011;41123;51.416;6.758;2022-08-03T12:57:48;5.00;;;1.33;;
55260;SDS011;41123;51.416;6.758;2022-08-03T13:00:15;5.32;;;1.20;;
55260;SDS011;41123;51.416;6.758;2022-08-03T13:02:42;6.00;;;1.70;;
55260;SDS011;41123;51.416;6.758;2022-08-03T13:05:09;4.97;;;1.70;;
55260;SDS011;41123;51.416;6.758;2022-08-03T13:07:42;6.38;;;1.42;;
55260;SDS011;41123;51.416;6.758;2022-08-03T13:10:09;6.03;;;1.40;;
55260;SDS011;41123;51.416;6.758;2022-08-03T13:12:46;3.13;;;1.20;;
55260;SDS011;41123;51.416;6.758;2022-08-03T13:15:12;6.28;;;1.45;;
55260;SDS011;41123;51.416;6.758;2022-08-03T13:17:39;4.18;;;1.17;;
55260;SDS011;41123;51.416;6.758;2022-08-03T13:20:05;4.83;;;1.30;;
55260;SDS011;41123;51.416;6.758;2022-08-03T13:22:32;4.93;;;1.25;;
55260;SDS011;41123;51.416;6.758;2022-08-03T13:24:58;5.15;;;1.40;;
55260;SDS011;41123;51.416;6.758;2022-08-03T13:27:26;6.38;;;1.10;;
55260;SDS011;41123;51.416;6.758;2022-08-03T13:29:52;3.58;;;1.15;;
55260;SDS011;41123;51.416;6.758;2022-08-03T13:32:19;4.50;;;1.20;;
55260;SDS011;41123;51.416;6.758;2022-08-03T13:34:45;5.38;;;1.25;;
55260;SDS011;41123;51.416;6.758;2022-08-03T13:37:12;4.67;;;1.30;;
55260;SDS011;41123;51.416;6.758;2022-08-03T13:39:38;3.58;;;1.10;;
55260;SDS011;41123;51.416;6.758;2022-08-03T13:42:04;3.47;;;1.25;;
55260;SDS011;41123;51.416;6.758;2022-08-03T13:44:31;5.45;;;1.40;;
55260;SDS011;41123;51.416;6.758;2022-08-03T13:46:57;3.83;;;1.13;;
55260;SDS011;41123;51.416;6.758;2022-08-03T13:49:25;6.63;;;1.48;;
55260;SDS011;41123;51.416;6.758;2022-08-03T13:51:51;5.65;;;1.40;;
55260;SDS011;41123;51.416;6.758;2022-08-03T13:54:17;5.07;;;1.30;;
55260;SDS011;41123;51.416;6.758;2022-08-03T13:56:44;5.37;;;1.07;;
55260;SDS011;41123;51.416;6.758;2022-08-03T13:59:20;2.95;;;0.93;;
55260;SDS011;41123;51.416;6.758;2022-08-03T14:01:46;3.72;;;1.02;;
55260;SDS011;41123;51.416;6.758;2022-08-03T14:04:13;3.85;;;0.90;;
55260;SDS011;41123;51.416;6.758;2022-08-03T14:06:39;3.55;;;0.80;;
55260;SDS011;41123;51.416;6.758;2022-08-03T14:09:05;3.83;;;0.82;;
55260;SDS011;41123;51.416;6.758;2022-08-03T14:11:32;4.00;;;1.10;;
55260;SDS011;41123;51.416;6.758;2022-08-03T14:13:58;3.50;;;1.00;;
55260;SDS011;41123;51.416;6.758;2022-08-03T14:16:24;2.78;;;1.08;;
55260;SDS011;41123;51.416;6.758;2022-08-03T14:18:51;5.55;;;1.00;;
55260;SDS011;41123;51.416;6.758;2022-08-03T14:21:17;3.33;;;0.80;;
55260;SDS011;41123;51.416;6.758;2022-08-03T14:23:43;2.80;;;1.10;;
55260;SDS011;41123;51.416;6.758;2022-08-03T14:26:09;3.13;;;0.70;;
55260;SDS011;41123;51.416;6.758;2022-08-03T14:28:36;4.32;;;0.95;;
55260;SDS011;41123;51.416;6.758;2022-08-03T14:31:02;3.15;;;0.80;;
55260;SDS011;41123;51.416;6.758;2022-08-03T14:33:29;1.85;;;0.65;;
55260;SDS011;41123;51.416;6.758;2022-08-03T14:35:55;3.70;;;0.73;;
55260;SDS011;41123;51.416;6.758;2022-08-03T14:38:22;6.55;;;0.95;;
55260;SDS011;41123;51.416;6.758;2022-08-03T14:40:48;4.85;;;0.90;;
55260;SDS011;41123;51.416;6.758;2022-08-03T14:43:14;3.25;;;0.70;;
55260;SDS011;41123;51.416;6.758;2022-08-03T14:45:45;3.60;;;0.85;;
55260;SDS011;41123;51.416;6.758;2022-08-03T14:48:12;4.88;;;0.70;;
55260;SDS011;41123;51.416;6.758;2022-08-03T14:50:38;3.35;;;0.73;;
55260;SDS011;41123;51.416;6.758;2022-08-03T14:53:04;2.75;;;0.70;;
55260;SDS011;41123;51.416;6.758;2022-08-03T14:55:30;3.50;;;0.70;;
55260;SDS011;41123;51.416;6.758;2022-08-03T14:57:56;2.90;;;0.82;;
55260;SDS011;41123;51.416;6.758;2022-08-03T15:00:24;4.10;;;0.90;;
55260;SDS011;41123;51.416;6.758;2022-08-03T15:02:50;2.28;;;0.80;;
55260;SDS011;41123;51.416;6.758;2022-08-03T15:05:16;3.67;;;0.85;;
55260;SDS011;41123;51.416;6.758;2022-08-03T15:07:42;2.40;;;0.60;;
55260;SDS011;41123;51.416;6.758;2022-08-03T15:10:08;3.17;;;0.70;;
55260;SDS011;41123;51.416;6.758;2022-08-03T15:12:35;2.25;;;0.63;;
55260;SDS011;41123;51.416;6.758;2022-08-03T15:15:01;2.95;;;0.73;;
55260;SDS011;41123;51.416;6.758;2022-08-03T15:17:27;3.70;;;0.70;;
55260;SDS011;41123;51.416;6.758;2022-08-03T15:19:53;3.35;;;0.82;;
55260;SDS011;41123;51.416;6.758;2022-08-03T15:22:19;6.45;;;2.05;;
55260;SDS011;41123;51.416;6.758;2022-08-03T15:24:46;7.28;;;3.22;;
55260;SDS011;41123;51.416;6.758;2022-08-03T15:27:12;18.73;;;8.40;;
55260;SDS011;41123;51.416;6.758;2022-08-03T15:29:39;53.43;;;26.47;;
55260;SDS011;41123;51.416;6.758;2022-08-03T15:32:05;4.93;;;0.80;;